CheckWX is a tool to help pilots better visualize weather data.  It is not intended as a substitute for an official pre-flight weather briefing.

06:41:39 UTC

GABS TAF
Senou Airport
Senou, Mali
TAF GABS 220500Z 2206/2312 22008KT 9999 FEW026 TEMPO 2213/2220 VRB15G25KT 4000 BLDU TSRA BKN030 FEW040CB

Apr-22@
06:00 UTC

Apr-22 @ 06:00 UTC

Apr-23@
12:00 UTC

Apr-23 @ 12:00 UTC

TAF GABS 220500Z 2206/2312 22008KT 9999 FEW026
Wind
  • 220° at 8 KTS
Cloud Levels
  • Few at 2,600' AGL

Apr-22@
13:00 UTC

Apr-22 @ 13:00 UTC

Apr-22@
20:00 UTC

Apr-22 @ 20:00 UTC

TEMPO 2213/2220 VRB15G25KT 4000 BLDU TSRA BKN030 FEW040CB

Temporary

Temporary Changes expected for less than half the time period

Wind
  • Variable at 15 KTS
  • {Gusting to 25 KTS
Conditions
Blowing Dust, Thunderstorm, Rain
Cloud Levels
  • Broken at 3,000' AGL
  • Few at 4,000' AGL